METAR AND TAF INFORMATION
METAR FOR KKLS
KKLS 211556Z AUTO 29005KT 10SM CLR 17/12 A2997 RMK AO2 SLP153 T01670122
KKLS 211456Z AUTO 30004KT 10SM CLR 15/12 A2998 RMK AO2 SLP155 T01500122 51006
KKLS 211419Z AUTO VRB04KT 10SM FEW008 14/12 A2998 RMK AO2
KKLS 211356Z AUTO 34003KT 10SM CLR 14/12 A2997 RMK AO2 SLP153 T01390117

 AIRPORT MAP

 RUNWAY INFORMATION
Runway 12 Runway length 4391 ft Runway width 100 ft
Runway elevation 20 ft Runway displaced threshold 0 ft Runway heading 140
Runway 30 Runway length 4391 ft Runway width 100 ft
Runway elevation 16 ft Runway displaced threshold 0 ft Runway heading 320

 AIRPORT FREQUENCIES
Type AWOS Name AWOS 3 Frequency 135.075 MHZ
Type CNTR Name SEATTLE CN Frequency 124.2 MHZ
Type FSS Name SEATTLE RD Frequency 122.25 MHZ
Type UNIC Name CTAF/UNICO Frequency 122.8 MHZ

 AIRPORT NEAR NAVIGATION AIDS

-